Davis, SD (57021)

9:16 AM CDT on March 27, 2015 (GMT -0500)
Northside | | Change Station
CLOSE
Current Station
Personal Weather Station
Location: Lennox, SD
Elevation: 1358 ft
Nearby Weather Stations

Elev 1358 ft 43.36 °N, 96.90 °W | Updated 11 minutes ago

Partly Cloudy
Partly Cloudy
25.0 °F
Feels Like 25 °F
N
1.1
Wind Variable Wind from NNW

Today
High -- | Low -- °F
--% Chance of Precip.
Yesterday
High -- | Low -- °F
Precip. -- in
7:19 AM 7:48 PM
First Quarter, 53% visible
Pressure 30.34 in
Visibility 10.0 miles
Clouds Scattered Clouds 17000 ft
Overcast 25000 ft
Windchill 25 °F
Dew Point 17 °F
Humidity 70%
Rainfall 0.00 in
Snow Depth Not available.
UV 0 out of 12
Pollen 2.20 out of 12
Air Quality Not available.
Flu Activity Not available.
METAR KFSD 271356Z 01003KT 10SM SCT170 OVC250 M06/M10 A3027 RMK AO2 SLP273 T10561100

More Conditions Fewer Conditions

Pressure 30.34 in
Visibility 10.0 miles
Clouds Scattered Clouds 17000 ft
Overcast 25000 ft
Windchill 25 °F
Dew Point 17 °F
Humidity 70%
Rainfall 0.00 in
Snow Depth Not available.
UV 0 out of 12
Pollen 2.20 out of 12
Air Quality Not available.
Flu Activity Not available.
METAR KFSD 271356Z 01003KT 10SM SCT170 OVC250 M06/M10 A3027 RMK AO2 SLP273 T10561100

More Conditions Fewer Conditions

10-Day Weather Forecast

Almanac

Astronomy

Mar. 27, 2015 Rise Set
Actual Time
Civil Twilight
Nautical Twilight
Astronomical Twilight
Moon
Length of Visible Light
Length of Day
Tomorrow will be .
, % of the Moon is Illuminated

Today's Extremes

State Highs State Lows

Community

WunderPhotos

Upload Photos

1,808,735 photos uploaded!

WunderBlogs® & News

Nearby

Air Quality

  Air Quality AQ Index Pollutant
Not available.

Snow Depth

Station Depth Elevation

Earthquake Activity

City Distance Mag. Time & Date
Minimum magnitude displayed is 2.5.

Coastal Water Temperatures

Place Temperature

Stations

Nearby Weather Stations

Station Location Temp. Windchill Dew Point Humidity Wind Precip. Elev Updated Type